Time;durP1;ratioP1;P1;durP2;ratioP2;P2;SDS_P1;SDS_P2;PMS_P1;PMS_P2;Temp;Humidity;BMP_temperature;BMP_pressure;BME280_temperature;BME280_humidity;BME280_pressure;Samples;Min_cycle;Max_cycle;Signal;HPM_P1;HPM_P2
2021/04/12 00:02:37;;;;;;;0.28;0.00;;;19.30;38.90;;;;;;5029619;28;20096;-78
2021/04/12 00:05:28;;;;;;;0.10;0.00;;;19.30;38.90;;;;;;5027365;28;20052;-77
2021/04/12 00:08:23;;;;;;;0.60;0.10;;;19.30;38.90;;;;;;5049598;28;20029;-76
2021/04/12 00:11:04;;;;;;;0.28;0.00;;;19.30;38.90;;;;;;5038803;28;20124;-78
2021/04/12 00:14:05;;;;;;;0.10;0.00;;;19.30;38.90;;;;;;5032142;28;20032;-77
2021/04/12 00:16:59;;;;;;;0.13;0.00;;;19.30;38.90;;;;;;5032276;28;20032;-78
2021/04/12 00:19:47;;;;;;;0.20;0.00;;;19.30;38.80;;;;;;5011669;28;20034;-77
2021/04/12 00:22:24;;;;;;;0.47;0.00;;;19.30;38.80;;;;;;5048595;28;20053;-77
2021/04/12 00:24:55;;;;;;;0.40;0.00;;;19.30;38.80;;;;;;5005924;28;20037;-77
2021/04/12 00:27:43;;;;;;;0.20;0.00;;;19.30;38.80;;;;;;5047468;28;20032;-77
2021/04/12 00:30:24;;;;;;;0.30;0.00;;;19.20;38.80;;;;;;5029494;28;20051;-76
2021/04/12 00:33:10;;;;;;;0.65;0.00;;;19.30;38.80;;;;;;5039559;28;20036;-76
2021/04/12 00:36:00;;;;;;;0.95;0.00;;;19.20;38.80;;;;;;5007707;28;20021;-77
2021/04/12 00:39:01;;;;;;;0.08;0.00;;;19.20;38.70;;;;;;5030346;28;20101;-77
2021/04/12 00:42:09;;;;;;;0.20;0.00;;;19.20;38.70;;;;;;5041810;28;20052;-76
2021/04/12 00:44:59;;;;;;;0.75;0.00;;;19.20;38.70;;;;;;5034361;28;20024;-76
2021/04/12 00:47:47;;;;;;;0.85;0.00;;;19.20;38.60;;;;;;5042898;28;20025;-76
2021/04/12 00:50:24;;;;;;;0.30;0.10;;;19.20;38.60;;;;;;5029295;28;20559;-76
2021/04/12 00:53:15;;;;;;;0.00;0.00;;;19.20;38.60;;;;;;5052684;28;20024;-77
2021/04/12 00:55:53;;;;;;;0.63;0.03;;;19.20;38.70;;;;;;5050198;28;20025;-77
2021/04/12 00:58:47;;;;;;;0.10;0.00;;;19.20;38.60;;;;;;5027059;28;20013;-77
2021/04/12 01:01:13;;;;;;;0.20;0.00;;;19.20;38.70;;;;;;5024018;28;20024;-76
2021/04/12 01:04:13;;;;;;;0.40;0.03;;;19.20;38.70;;;;;;5042443;28;20104;-77
2021/04/12 01:07:08;;;;;;;0.40;0.00;;;19.20;38.70;;;;;;5049075;28;20081;-76
2021/04/12 01:09:52;;;;;;;0.17;0.00;;;19.20;38.70;;;;;;5025229;28;20026;-76
2021/04/12 01:12:37;;;;;;;0.65;0.00;;;19.20;38.70;;;;;;5011425;28;20032;-76
2021/04/12 01:15:30;;;;;;;0.20;0.00;;;19.20;38.70;;;;;;5005576;28;20037;-77
2021/04/12 01:18:14;;;;;;;0.90;0.00;;;19.20;38.70;;;;;;5028917;28;20587;-76
2021/04/12 01:21:14;;;;;;;0.10;0.00;;;19.20;38.80;;;;;;5026569;28;20029;-77
2021/04/12 01:23:48;;;;;;;0.20;0.00;;;19.10;38.70;;;;;;5030368;28;20025;-77
2021/04/12 01:26:17;;;;;;;0.10;0.00;;;19.10;38.70;;;;;;5027942;28;20393;-77
2021/04/12 01:29:16;;;;;;;0.60;0.00;;;19.10;38.70;;;;;;5043807;28;20024;-76
2021/04/12 01:32:23;;;;;;;0.22;0.00;;;19.10;38.70;;;;;;5048611;28;20591;-77
2021/04/12 01:35:23;;;;;;;0.25;0.00;;;19.10;38.60;;;;;;5048811;28;20030;-76
2021/04/12 01:38:14;;;;;;;0.38;0.00;;;19.10;38.50;;;;;;5012176;28;20029;-77
2021/04/12 01:41:10;;;;;;;0.10;0.00;;;19.10;38.50;;;;;;5025452;28;20075;-78
2021/04/12 01:43:42;;;;;;;0.20;0.00;;;19.10;38.50;;;;;;5024430;28;20032;-77
2021/04/12 01:46:21;;;;;;;1.75;0.00;;;19.10;38.50;;;;;;5016349;28;20155;-77
2021/04/12 01:48:56;;;;;;;0.20;0.00;;;19.10;38.50;;;;;;5053588;28;20033;-77
2021/04/12 01:51:53;;;;;;;0.30;0.00;;;19.10;38.50;;;;;;5015964;28;20017;-77
2021/04/12 01:54:34;;;;;;;0.10;0.00;;;19.10;38.50;;;;;;5026734;28;20013;-77
2021/04/12 01:57:34;;;;;;;0.10;0.00;;;19.10;38.50;;;;;;5026481;28;20096;-77
2021/04/12 02:00:18;;;;;;;0.10;0.00;;;19.10;38.50;;;;;;5045302;28;20083;-77
2021/04/12 02:03:11;;;;;;;0.10;0.00;;;19.10;38.50;;;;;;5049976;28;20025;-77
2021/04/12 02:06:15;;;;;;;0.00;0.00;;;19.10;38.50;;;;;;5025422;28;20021;-77
2021/04/12 02:08:59;;;;;;;0.85;0.00;;;19.10;38.50;;;;;;5026933;28;20029;-77
2021/04/12 02:11:34;;;;;;;0.28;0.00;;;19.10;38.60;;;;;;5008242;28;20029;-77
2021/04/12 02:14:33;;;;;;;0.00;0.00;;;19.00;38.50;;;;;;5025963;28;20030;-77
2021/04/12 02:17:23;;;;;;;0.28;0.00;;;19.10;38.60;;;;;;5042052;28;20031;-77
2021/04/12 02:20:06;;;;;;;0.20;0.00;;;19.00;38.50;;;;;;5025578;28;20025;-77
2021/04/12 02:22:44;;;;;;;0.95;0.00;;;19.00;38.50;;;;;;5023456;28;20032;-77
2021/04/12 02:25:48;;;;;;;0.30;0.00;;;19.00;38.50;;;;;;5025050;28;20022;-77
2021/04/12 02:28:35;;;;;;;0.20;0.00;;;19.00;38.60;;;;;;5048455;28;20025;-77
2021/04/12 02:31:08;;;;;;;0.22;0.00;;;19.00;38.60;;;;;;5043493;28;20017;-77
2021/04/12 02:33:50;;;;;;;0.00;0.00;;;19.00;38.60;;;;;;5046887;28;20086;-77
2021/04/12 02:36:51;;;;;;;0.10;0.00;;;19.00;38.60;;;;;;5027695;28;20555;-78
2021/04/12 02:39:39;;;;;;;0.22;0.00;;;19.00;38.60;;;;;;5023704;28;20055;-77
2021/04/12 02:42:27;;;;;;;0.30;0.00;;;19.00;38.60;;;;;;5039853;28;20389;-77
2021/04/12 02:44:55;;;;;;;0.57;0.00;;;19.00;38.60;;;;;;5024017;28;20041;-78
2021/04/12 02:47:57;;;;;;;0.20;0.00;;;19.00;38.60;;;;;;5004096;28;20025;-76
2021/04/12 02:50:47;;;;;;;0.13;0.00;;;19.00;38.60;;;;;;5019438;28;20051;-77
2021/04/12 02:53:34;;;;;;;0.08;0.00;;;19.00;38.50;;;;;;5041307;28;20028;-77
2021/04/12 02:56:44;;;;;;;0.10;0.00;;;19.00;38.50;;;;;;5030567;28;20620;-78
2021/04/12 02:59:31;;;;;;;0.10;0.00;;;19.00;38.50;;;;;;5043681;28;20071;-78
2021/04/12 03:02:21;;;;;;;0.63;0.00;;;19.00;38.60;;;;;;5033793;28;20017;-77
2021/04/12 03:05:08;;;;;;;0.15;0.00;;;18.90;38.50;;;;;;5046219;28;20017;-77
2021/04/12 03:07:54;;;;;;;0.17;0.00;;;18.90;38.50;;;;;;5029716;28;20431;-77
2021/04/12 03:10:35;;;;;;;0.10;0.00;;;18.90;38.50;;;;;;5028601;28;20029;-77
2021/04/12 03:13:20;;;;;;;0.10;0.00;;;18.90;38.50;;;;;;5014356;28;20711;-77
2021/04/12 03:15:52;;;;;;;0.22;0.00;;;18.90;38.50;;;;;;5006511;28;20028;-77
2021/04/12 03:18:55;;;;;;;0.00;0.00;;;18.90;38.50;;;;;;5011830;28;20091;-78
2021/04/12 03:21:55;;;;;;;0.20;0.00;;;18.90;38.50;;;;;;5029580;28;20020;-76
2021/04/12 03:24:35;;;;;;;0.17;0.00;;;18.90;38.60;;;;;;5027283;28;20120;-77
2021/04/12 03:27:35;;;;;;;0.10;0.00;;;18.90;38.60;;;;;;5013516;28;20067;-76
2021/04/12 03:30:38;;;;;;;0.10;0.00;;;18.90;38.60;;;;;;5047473;28;20075;-76
2021/04/12 03:33:26;;;;;;;0.55;0.00;;;18.90;38.50;;;;;;5037214;28;20401;-77
2021/04/12 03:36:30;;;;;;;0.00;0.00;;;18.90;38.50;;;;;;5033052;28;20025;-77
2021/04/12 03:39:08;;;;;;;1.02;0.00;;;18.90;38.60;;;;;;5035597;28;20013;-77
2021/04/12 03:41:59;;;;;;;0.15;0.00;;;18.90;38.60;;;;;;5024630;28;20412;-76
2021/04/12 03:44:31;;;;;;;0.50;0.10;;;18.90;38.60;;;;;;5045665;28;20059;-77
2021/04/12 03:47:18;;;;;;;0.15;0.00;;;18.90;38.60;;;;;;5011989;28;20041;-77
2021/04/12 03:50:08;;;;;;;0.00;0.00;;;18.90;38.60;;;;;;5012938;28;20082;-77
2021/04/12 03:52:53;;;;;;;0.17;0.00;;;18.90;38.50;;;;;;5024171;28;20078;-76
2021/04/12 03:55:37;;;;;;;0.22;0.10;;;18.90;38.60;;;;;;5027296;28;20013;-76
2021/04/12 03:58:15;;;;;;;0.85;0.00;;;18.80;38.50;;;;;;5028231;28;20029;-78
2021/04/12 04:00:56;;;;;;;0.50;0.10;;;18.90;38.40;;;;;;5013924;28;20021;-76
2021/04/12 04:03:41;;;;;;;0.28;0.00;;;18.80;38.40;;;;;;5029054;28;20025;-77
2021/04/12 04:06:14;;;;;;;0.22;0.00;;;18.80;38.40;;;;;;5010529;28;20158;-76
2021/04/12 04:09:04;;;;;;;0.17;0.00;;;18.80;38.50;;;;;;5009220;28;20090;-77
2021/04/12 04:11:49;;;;;;;0.32;0.00;;;18.80;38.50;;;;;;5002810;28;20163;-76
2021/04/12 04:14:42;;;;;;;0.08;0.00;;;18.80;38.50;;;;;;5046163;28;20033;-77
2021/04/12 04:17:23;;;;;;;0.45;0.00;;;18.80;38.50;;;;;;5013603;28;20070;-77
2021/04/12 04:20:00;;;;;;;0.15;0.00;;;18.80;38.50;;;;;;5027612;28;20022;-77
2021/04/12 04:22:35;;;;;;;0.10;0.00;;;18.80;38.50;;;;;;5027813;28;20539;-76
2021/04/12 04:25:43;;;;;;;0.82;0.10;;;18.70;38.50;;;;;;5008094;28;20017;-77
2021/04/12 04:28:30;;;;;;;0.63;0.00;;;18.80;38.50;;;;;;5047952;28;20477;-77
2021/04/12 04:31:14;;;;;;;0.20;0.00;;;18.80;38.50;;;;;;5011113;28;20021;-77
2021/04/12 04:34:07;;;;;;;0.20;0.00;;;18.70;38.50;;;;;;5016614;28;20036;-77
2021/04/12 04:37:04;;;;;;;0.17;0.00;;;18.80;38.50;;;;;;5013314;28;20036;-77
2021/04/12 04:39:58;;;;;;;0.30;0.10;;;18.70;38.40;;;;;;5030972;28;20444;-77
2021/04/12 04:42:46;;;;;;;0.50;0.10;;;18.80;38.50;;;;;;5045864;28;20025;-77
2021/04/12 04:45:24;;;;;;;0.10;0.00;;;18.70;38.50;;;;;;5010213;28;20084;-77
2021/04/12 04:48:14;;;;;;;0.20;0.00;;;18.80;38.50;;;;;;5011359;28;20029;-77
2021/04/12 04:51:05;;;;;;;1.00;0.00;;;18.70;38.50;;;;;;5044985;28;20037;-78
2021/04/12 04:54:06;;;;;;;0.10;0.00;;;18.70;38.50;;;;;;5011606;28;20370;-77
2021/04/12 04:56:36;;;;;;;0.10;0.00;;;18.70;38.60;;;;;;5028359;28;20033;-77
2021/04/12 04:59:24;;;;;;;0.20;0.00;;;18.70;38.50;;;;;;5026469;28;20033;-77
2021/04/12 05:02:26;;;;;;;0.30;0.00;;;18.70;38.50;;;;;;5027176;28;20037;-77
2021/04/12 05:05:10;;;;;;;0.00;0.00;;;18.70;38.50;;;;;;5011335;28;20053;-77
2021/04/12 05:08:10;;;;;;;0.13;0.00;;;18.70;38.50;;;;;;5025211;28;20137;-77
2021/04/12 05:10:45;;;;;;;0.20;0.00;;;18.70;38.50;;;;;;5045258;28;20304;-77
2021/04/12 05:13:42;;;;;;;0.17;0.00;;;18.70;38.40;;;;;;5026648;28;20028;-77
2021/04/12 05:16:38;;;;;;;0.30;0.05;;;18.70;38.50;;;;;;5043227;28;20079;-77
2021/04/12 05:20:09;;;;;;;0.52;0.00;;;18.80;38.70;;;;;;5025735;28;20111;-77
2021/04/12 05:23:02;;;;;;;0.63;0.00;;;18.90;38.60;;;;;;4933240;28;20035;-77
2021/04/12 05:25:40;;;;;;;0.10;0.00;;;19.00;38.30;;;;;;5040202;28;20048;-77
2021/04/12 05:28:23;;;;;;;0.17;0.00;;;19.10;38.20;;;;;;5026977;28;20017;-77
2021/04/12 05:31:11;;;;;;;0.10;0.00;;;19.20;38.00;;;;;;5029093;28;20037;-78
2021/04/12 05:34:08;;;;;;;0.68;0.00;;;19.30;37.90;;;;;;5028127;28;20310;-78
2021/04/12 05:36:49;;;;;;;0.20;0.00;;;19.40;37.80;;;;;;5027519;28;20052;-78
2021/04/12 05:39:27;;;;;;;0.10;0.00;;;19.40;37.80;;;;;;5011930;28;20021;-77
2021/04/12 05:42:05;;;;;;;0.13;0.00;;;19.50;37.60;;;;;;5030832;28;20025;-77
2021/04/12 05:45:09;;;;;;;0.17;0.00;;;19.60;37.60;;;;;;5029992;28;20405;-76
2021/04/12 05:47:59;;;;;;;0.28;0.10;;;19.60;37.70;;;;;;5009078;28;20025;-76
2021/04/12 05:51:03;;;;;;;1.15;0.00;;;19.70;37.60;;;;;;5031960;28;20032;-78
2021/04/12 05:53:51;;;;;;;0.08;0.00;;;19.70;37.50;;;;;;5024847;28;20123;-77
2021/04/12 05:56:35;;;;;;;0.10;0.00;;;19.70;37.60;;;;;;5008462;28;20433;-76
2021/04/12 05:59:27;;;;;;;0.43;0.00;;;19.80;37.60;;;;;;5006816;28;20112;-77
2021/04/12 06:02:12;;;;;;;0.50;0.00;;;19.80;37.60;;;;;;5009846;28;20029;-78
2021/04/12 06:04:55;;;;;;;0.20;0.00;;;19.90;37.60;;;;;;5023630;28;20193;-79
2021/04/12 06:07:21;;;;;;;1.48;0.00;;;19.90;37.50;;;;;;5041576;28;20021;-78
2021/04/12 06:10:24;;;;;;;0.60;0.10;;;20.00;37.50;;;;;;5010140;28;20029;-79
2021/04/12 06:13:18;;;;;;;0.82;0.10;;;20.00;37.30;;;;;;5043786;28;20036;-79
2021/04/12 06:15:52;;;;;;;2.42;0.10;;;20.00;37.30;;;;;;5042147;28;20052;-80
2021/04/12 06:18:38;;;;;;;0.30;0.03;;;20.10;37.10;;;;;;5006236;28;20029;-76
2021/04/12 06:21:23;;;;;;;1.17;0.10;;;20.10;37.10;;;;;;5023004;28;20025;-77
2021/04/12 06:24:14;;;;;;;1.85;0.10;;;20.10;37.00;;;;;;5040139;28;20517;-76
2021/04/12 06:27:20;;;;;;;0.50;0.10;;;20.10;37.00;;;;;;5007239;28;20032;-75
2021/04/12 06:30:01;;;;;;;1.02;0.10;;;20.20;37.10;;;;;;5041444;28;20032;-77
2021/04/12 06:33:05;;;;;;;6.22;0.20;;;20.10;37.20;;;;;;5023481;28;20404;-77
2021/04/12 06:36:16;;;;;;;1.15;0.10;;;20.10;37.20;;;;;;5006233;28;20033;-75
2021/04/12 06:39:19;;;;;;;1.10;0.10;;;20.10;37.30;;;;;;5016832;28;20045;-75
2021/04/12 06:42:23;;;;;;;1.13;0.20;;;20.10;37.30;;;;;;5028601;28;20033;-76
2021/04/12 06:45:30;;;;;;;0.25;0.10;;;20.10;37.40;;;;;;5040045;28;20032;-76
2021/04/12 06:48:26;;;;;;;0.40;0.03;;;20.10;37.50;;;;;;5022817;28;20029;-76
2021/04/12 06:51:16;;;;;;;0.47;0.10;;;20.00;37.40;;;;;;5040910;28;20276;-76
2021/04/12 06:54:19;;;;;;;0.60;0.10;;;20.00;37.50;;;;;;5006436;28;20338;-76
2021/04/12 06:56:48;;;;;;;0.68;0.10;;;20.00;37.60;;;;;;5022782;28;20022;-77
2021/04/12 06:59:32;;;;;;;0.43;0.15;;;20.00;37.60;;;;;;5032410;28;20502;-80
2021/04/12 07:02:21;;;;;;;0.40;0.10;;;20.00;37.50;;;;;;5028002;28;20068;-78
2021/04/12 07:05:16;;;;;;;1.67;0.20;;;20.10;37.50;;;;;;5028017;28;20055;-79
2021/04/12 07:08:16;;;;;;;1.55;0.30;;;20.10;37.60;;;;;;5011356;28;20029;-78
2021/04/12 07:11:09;;;;;;;0.95;0.38;;;20.10;37.80;;;;;;5028692;28;20044;-78
2021/04/12 07:13:44;;;;;;;1.90;0.15;;;20.10;37.60;;;;;;5028553;28;20037;-77
2021/04/12 07:16:44;;;;;;;1.73;0.15;;;20.00;37.70;;;;;;5027380;28;20045;-78
2021/04/12 07:19:29;;;;;;;1.15;0.30;;;20.00;37.70;;;;;;5006412;28;20460;-78
2021/04/12 07:22:21;;;;;;;1.77;0.30;;;20.00;37.70;;;;;;5047189;28;20051;-78
2021/04/12 07:25:29;;;;;;;1.80;0.40;;;20.00;37.70;;;;;;5041926;28;20087;-78
2021/04/12 07:28:39;;;;;;;2.05;0.40;;;20.00;38.30;;;;;;5047943;28;20035;-78
2021/04/12 07:31:23;;;;;;;0.85;0.30;;;19.90;37.70;;;;;;4903196;29;20674;-77
2021/04/12 07:34:19;;;;;;;1.58;0.40;;;19.90;37.80;;;;;;4930379;29;20110;-78
2021/04/12 07:37:04;;;;;;;0.98;0.30;;;19.90;37.70;;;;;;5016721;28;20088;-77
2021/04/12 07:39:43;;;;;;;1.10;0.20;;;20.10;37.70;;;;;;5042406;28;20061;-77
2021/04/12 07:42:47;;;;;;;2.88;0.40;;;20.20;37.50;;;;;;5053267;28;20039;-76
2021/04/12 07:46:00;;;;;;;1.17;0.40;;;20.30;37.50;;;;;;5041641;28;20025;-76
2021/04/12 07:49:09;;;;;;;3.42;0.30;;;20.40;37.70;;;;;;5021792;28;20208;-75
2021/04/12 07:51:56;;;;;;;2.33;0.30;;;20.60;37.90;;;;;;5008889;28;20040;-75
2021/04/12 07:54:45;;;;;;;4.10;0.52;;;20.80;37.80;;;;;;5027142;28;20035;-78
2021/04/12 07:57:35;;;;;;;1.40;0.35;;;20.90;37.70;;;;;;5006884;28;20484;-75
2021/04/12 08:00:20;;;;;;;3.88;0.30;;;20.90;37.80;;;;;;5040861;28;20032;-76
2021/04/12 08:03:34;;;;;;;2.13;0.38;;;20.90;37.80;;;;;;5020456;28;20039;-75
2021/04/12 08:06:24;;;;;;;1.15;0.30;;;21.00;37.70;;;;;;4968349;28;20041;-75
2021/04/12 08:09:25;;;;;;;1.30;0.20;;;21.10;37.70;;;;;;5038190;28;20466;-75
2021/04/12 08:12:29;;;;;;;0.80;0.40;;;21.10;37.60;;;;;;4974652;28;20053;-75
2021/04/12 08:15:28;;;;;;;1.08;0.20;;;21.10;37.70;;;;;;5026434;28;20044;-78
2021/04/12 08:18:22;;;;;;;1.88;0.50;;;21.10;37.80;;;;;;5011012;28;20115;-81
2021/04/12 08:21:13;;;;;;;0.93;0.25;;;21.10;37.90;;;;;;5030591;28;20032;-77
2021/04/12 08:24:03;;;;;;;1.67;0.40;;;21.10;37.70;;;;;;5026160;28;20456;-76
2021/04/12 08:27:03;;;;;;;1.88;0.32;;;21.10;38.00;;;;;;5043234;28;20115;-76
2021/04/12 08:30:19;;;;;;;1.20;0.20;;;21.00;38.10;;;;;;5043283;28;20056;-76
2021/04/12 08:33:03;;;;;;;2.45;0.20;;;21.00;38.20;;;;;;5042063;28;20089;-75
2021/04/12 08:35:57;;;;;;;1.80;0.30;;;21.00;38.20;;;;;;5041768;28;20057;-76
2021/04/12 08:38:49;;;;;;;1.23;0.35;;;21.00;38.20;;;;;;5042783;28;20035;-77
2021/04/12 08:41:33;;;;;;;1.48;0.28;;;21.00;38.10;;;;;;5025669;28;20376;-79
2021/04/12 08:44:42;;;;;;;1.45;0.20;;;21.10;38.30;;;;;;5022137;28;20025;-77
2021/04/12 08:47:42;;;;;;;1.00;0.50;;;21.10;38.30;;;;;;5040986;28;20049;-76
2021/04/12 08:50:31;;;;;;;0.80;0.20;;;21.10;38.30;;;;;;5010274;28;20028;-77
2021/04/12 08:53:06;;;;;;;2.03;0.32;;;21.10;38.20;;;;;;5026940;28;20028;-78
2021/04/12 08:56:02;;;;;;;0.88;0.30;;;21.00;38.40;;;;;;5028877;28;20025;-77
2021/04/12 08:58:43;;;;;;;0.93;0.20;;;21.00;38.70;;;;;;5025903;28;20070;-78
2021/04/12 09:01:33;;;;;;;1.83;0.30;;;21.00;38.80;;;;;;5025986;28;20053;-78
2021/04/12 09:04:10;;;;;;;1.10;0.30;;;20.90;38.80;;;;;;5026208;28;20048;-75
2021/04/12 09:07:04;;;;;;;0.75;0.25;;;21.00;38.70;;;;;;5040883;28;20025;-77
2021/04/12 09:09:51;;;;;;;2.10;0.30;;;21.00;38.70;;;;;;5044257;28;20020;-79
2021/04/12 09:12:44;;;;;;;3.30;0.38;;;21.10;38.70;;;;;;5024500;28;20227;-78
2021/04/12 09:15:31;;;;;;;1.00;0.30;;;21.10;38.50;;;;;;5025424;28;20021;-77
2021/04/12 09:18:35;;;;;;;0.75;0.20;;;21.10;38.70;;;;;;5042570;28;20064;-77
2021/04/12 09:21:16;;;;;;;1.85;0.32;;;21.00;38.70;;;;;;5023182;28;20024;-79
2021/04/12 09:24:00;;;;;;;0.63;0.30;;;21.00;39.10;;;;;;5046629;28;20067;-76
2021/04/12 09:26:59;;;;;;;0.65;0.20;;;21.00;38.90;;;;;;5010645;28;20108;-78
2021/04/12 09:30:11;;;;;;;0.73;0.28;;;21.00;38.90;;;;;;5025614;28;20025;-79
2021/04/12 09:32:56;;;;;;;;;;;21.00;39.20;;;;;;5031026;28;20029;-78
2021/04/12 09:36:00;;;;;;;0.85;0.20;;;21.00;38.90;;;;;;5038806;28;19909;-76
2021/04/12 09:38:45;;;;;;;1.38;0.20;;;21.00;39.20;;;;;;5026347;28;20032;-75
2021/04/12 09:41:41;;;;;;;2.40;0.30;;;21.10;39.80;;;;;;5021708;28;20029;-76
2021/04/12 09:44:42;;;;;;;0.57;0.20;;;21.30;39.20;;;;;;5041872;28;20218;-77
2021/04/12 09:47:34;;;;;;;3.85;0.20;;;21.50;38.80;;;;;;5025073;28;20280;-79
2021/04/12 09:50:18;;;;;;;1.00;0.30;;;21.60;38.60;;;;;;5041547;28;20018;-76
2021/04/12 09:52:59;;;;;;;0.65;0.20;;;21.70;38.50;;;;;;5040583;28;20330;-76
2021/04/12 09:55:35;;;;;;;0.60;0.27;;;21.80;38.20;;;;;;5009249;28;20035;-78
2021/04/12 09:58:35;;;;;;;0.88;0.20;;;21.90;38.20;;;;;;5024035;28;20025;-78
2021/04/12 10:01:12;;;;;;;1.83;0.40;;;22.00;38.30;;;;;;5042494;28;20070;-80
2021/04/12 10:03:41;;;;;;;1.00;0.28;;;22.00;38.30;;;;;;5024798;28;20060;-78
2021/04/12 10:06:45;;;;;;;0.80;0.30;;;22.00;38.40;;;;;;5041813;28;20029;-77
2021/04/12 10:09:45;;;;;;;1.90;0.30;;;22.10;38.40;;;;;;5027062;28;20037;-78
2021/04/12 10:12:30;;;;;;;0.75;0.30;;;22.20;38.30;;;;;;5009147;28;20029;-78
2021/04/12 10:15:12;;;;;;;2.15;0.30;;;22.20;38.20;;;;;;5006829;28;20025;-79
2021/04/12 10:17:45;;;;;;;1.30;0.50;;;22.20;38.00;;;;;;5008067;28;20035;-79
2021/04/12 10:20:19;;;;;;;1.42;0.55;;;22.30;38.10;;;;;;5009422;28;20102;-79
2021/04/12 10:22:55;;;;;;;1.98;0.38;;;22.40;38.10;;;;;;5044757;28;20076;-79
2021/04/12 10:25:39;;;;;;;1.65;0.47;;;22.40;38.10;;;;;;5026115;28;20555;-79
2021/04/12 10:28:52;;;;;;;0.63;0.40;;;22.40;38.10;;;;;;5011815;28;20022;-80
2021/04/12 10:31:34;;;;;;;1.08;0.47;;;22.40;38.10;;;;;;4968210;28;20125;-79
2021/04/12 10:34:15;;;;;;;1.00;0.40;;;22.50;38.20;;;;;;5035333;28;20040;-80
2021/04/12 10:37:06;;;;;;;2.20;0.50;;;22.40;38.20;;;;;;5025727;28;20029;-79
2021/04/12 10:39:59;;;;;;;1.77;0.80;;;22.40;38.20;;;;;;5024160;28;20450;-80
2021/04/12 10:43:04;;;;;;;1.40;0.50;;;22.40;38.30;;;;;;5024270;28;20140;-77
2021/04/12 10:45:55;;;;;;;1.35;0.50;;;22.40;38.40;;;;;;5042941;28;20433;-78
2021/04/12 10:48:44;;;;;;;0.73;0.32;;;22.30;38.30;;;;;;5042321;28;20070;-77
2021/04/12 10:51:22;;;;;;;0.73;0.47;;;22.40;38.40;;;;;;5042716;28;20036;-76
2021/04/12 10:54:17;;;;;;;0.68;0.20;;;22.40;38.30;;;;;;5044217;28;20041;-76
2021/04/12 10:56:48;;;;;;;1.83;0.70;;;22.40;38.40;;;;;;5009272;28;20101;-76
2021/04/12 10:59:44;;;;;;;0.80;0.50;;;22.30;38.50;;;;;;5040693;28;20199;-77
2021/04/12 11:02:29;;;;;;;0.90;0.50;;;22.30;38.50;;;;;;5041832;28;20021;-77
2021/04/12 11:05:10;;;;;;;0.68;0.40;;;22.30;38.50;;;;;;5042951;28;20099;-77
2021/04/12 11:07:53;;;;;;;1.35;0.47;;;22.20;38.30;;;;;;5052208;28;20037;-76
2021/04/12 11:10:34;;;;;;;0.90;0.30;;;22.20;38.30;;;;;;5024215;28;20029;-76
2021/04/12 11:13:09;;;;;;;1.58;0.52;;;22.20;38.30;;;;;;5007493;28;20355;-76
2021/04/12 11:15:53;;;;;;;1.25;0.38;;;22.20;38.30;;;;;;5044575;28;20031;-78
2021/04/12 11:18:58;;;;;;;1.48;0.30;;;22.20;38.40;;;;;;5024849;28;20013;-77
2021/04/12 11:21:27;;;;;;;1.90;0.40;;;22.10;38.40;;;;;;5017528;28;20029;-76
2021/04/12 11:24:02;;;;;;;0.75;0.40;;;22.10;38.20;;;;;;5050042;28;20116;-78
2021/04/12 11:27:07;;;;;;;0.85;0.30;;;22.10;38.40;;;;;;5024312;28;20040;-76
2021/04/12 11:29:38;;;;;;;2.05;0.40;;;22.10;38.20;;;;;;5040460;28;20434;-76
2021/04/12 11:32:43;;;;;;;0.77;0.20;;;22.10;38.10;;;;;;5042149;28;20095;-77
2021/04/12 11:35:22;;;;;;;0.90;0.30;;;22.10;38.30;;;;;;5025809;28;20067;-77
2021/04/12 11:38:03;;;;;;;0.63;0.20;;;22.10;38.30;;;;;;5025155;28;20025;-78
2021/04/12 11:40:35;;;;;;;1.00;0.20;;;22.00;38.20;;;;;;5026784;28;20033;-79
2021/04/12 11:43:08;;;;;;;1.40;0.30;;;22.00;38.30;;;;;;5022609;28;20356;-76
2021/04/12 11:46:07;;;;;;;0.85;0.20;;;22.00;38.10;;;;;;5022930;28;20029;-76
2021/04/12 11:48:36;;;;;;;0.60;0.22;;;22.00;38.20;;;;;;5023952;28;20534;-80
2021/04/12 11:51:14;;;;;;;0.65;0.20;;;22.00;38.40;;;;;;5014621;28;20024;-77
2021/04/12 11:54:03;;;;;;;1.52;0.30;;;22.10;38.60;;;;;;5011214;28;20048;-78
2021/04/12 11:56:39;;;;;;;1.05;0.50;;;22.00;38.30;;;;;;5028905;28;20151;-77
2021/04/12 11:59:11;;;;;;;0.60;0.20;;;22.10;38.60;;;;;;5012080;28;20033;-77
2021/04/12 12:01:53;;;;;;;0.80;0.20;;;22.10;38.50;;;;;;5011218;28;20024;-78
2021/04/12 12:04:28;;;;;;;;;;;22.10;38.40;;;;;;5026009;28;20017;-77
2021/04/12 12:07:19;;;;;;;0.60;0.17;;;22.00;38.30;;;;;;5012296;28;19966;-76
2021/04/12 12:09:49;;;;;;;0.67;0.37;;;22.00;38.50;;;;;;5048446;28;20030;-77
2021/04/12 12:12:30;;;;;;;0.47;0.20;;;22.00;38.50;;;;;;5010432;28;20033;-77
2021/04/12 12:15:33;;;;;;;0.60;0.20;;;22.00;38.60;;;;;;5047729;28;20025;-77
2021/04/12 12:18:29;;;;;;;0.55;0.20;;;22.20;39.20;;;;;;5044316;28;20104;-77
2021/04/12 12:21:07;;;;;;;0.82;0.20;;;22.30;39.00;;;;;;5031750;28;20060;-78
2021/04/12 12:24:02;;;;;;;0.50;0.15;;;22.50;38.80;;;;;;5041173;28;20029;-77
2021/04/12 12:26:39;;;;;;;0.57;0.30;;;22.60;38.50;;;;;;5036388;28;20021;-78
2021/04/12 12:29:29;;;;;;;0.52;0.20;;;22.70;38.30;;;;;;5029344;28;20100;-78
2021/04/12 12:32:19;;;;;;;1.30;0.35;;;22.80;38.30;;;;;;5035796;28;20027;-78
2021/04/12 12:34:52;;;;;;;0.35;0.10;;;22.80;38.40;;;;;;5052354;28;20048;-78
2021/04/12 12:37:43;;;;;;;1.00;0.30;;;22.90;38.30;;;;;;5048108;28;20017;-77
2021/04/12 12:40:28;;;;;;;0.22;0.10;;;22.90;38.20;;;;;;5027161;28;20029;-78
2021/04/12 12:43:08;;;;;;;0.30;0.10;;;23.00;38.10;;;;;;5031851;28;20067;-78
2021/04/12 12:45:39;;;;;;;0.63;0.10;;;23.00;38.10;;;;;;5022835;28;20051;-76
2021/04/12 12:48:15;;;;;;;0.60;0.20;;;23.00;38.10;;;;;;5030484;28;20054;-77
2021/04/12 12:50:53;;;;;;;1.65;0.10;;;23.10;38.20;;;;;;5027486;28;20025;-77
2021/04/12 12:53:24;;;;;;;0.80;0.10;;;23.00;38.20;;;;;;5017522;28;20029;-76
2021/04/12 12:55:57;;;;;;;0.63;0.15;;;23.00;38.20;;;;;;5050487;28;20018;-77
2021/04/12 12:58:29;;;;;;;0.50;0.13;;;23.10;38.20;;;;;;5011398;28;20032;-77
2021/04/12 13:01:02;;;;;;;2.55;0.10;;;23.00;38.30;;;;;;5013838;28;20135;-76
2021/04/12 13:03:39;;;;;;;0.60;0.10;;;23.00;38.30;;;;;;5030581;28;20033;-78
2021/04/12 13:06:32;;;;;;;0.38;0.10;;;23.00;38.40;;;;;;5046329;28;20561;-77
2021/04/12 13:09:34;;;;;;;0.73;0.20;;;23.00;38.50;;;;;;5027444;28;20090;-78
2021/04/12 13:12:14;;;;;;;0.35;0.10;;;23.00;38.50;;;;;;4992068;28;20065;-79
2021/04/12 13:14:45;;;;;;;0.65;0.10;;;23.00;38.50;;;;;;5027327;28;20029;-76
2021/04/12 13:17:39;;;;;;;0.27;0.10;;;22.90;38.60;;;;;;5044389;28;20052;-77
2021/04/12 13:20:12;;;;;;;0.40;0.10;;;22.90;38.60;;;;;;5027610;28;20279;-79
2021/04/12 13:22:41;;;;;;;0.85;0.30;;;22.90;38.70;;;;;;5016113;28;20033;-77
2021/04/12 13:25:32;;;;;;;0.57;0.00;;;23.00;38.70;;;;;;5030691;28;20060;-78
2021/04/12 13:28:17;;;;;;;0.82;0.10;;;23.00;38.70;;;;;;5029616;28;20029;-77
2021/04/12 13:31:09;;;;;;;0.30;0.10;;;22.90;38.70;;;;;;5049065;28;20044;-78
2021/04/12 13:33:53;;;;;;;2.33;0.10;;;22.90;38.90;;;;;;5005630;28;20045;-78
2021/04/12 13:36:23;;;;;;;0.95;0.20;;;22.90;38.90;;;;;;5028361;28;20089;-79
2021/04/12 13:38:52;;;;;;;0.13;0.00;;;22.90;38.80;;;;;;5031171;28;20030;-78
2021/04/12 13:41:31;;;;;;;0.75;0.10;;;22.90;38.80;;;;;;5048254;28;20029;-79
2021/04/12 13:44:09;;;;;;;0.43;0.00;;;22.90;38.90;;;;;;5025565;28;20025;-77
2021/04/12 13:46:54;;;;;;;1.38;0.10;;;22.90;39.00;;;;;;5030550;28;20033;-77
2021/04/12 13:49:26;;;;;;;1.65;0.10;;;22.80;39.10;;;;;;5030821;28;20029;-80
2021/04/12 13:52:23;;;;;;;0.17;0.05;;;22.80;39.10;;;;;;5048982;28;20452;-77
2021/04/12 13:54:57;;;;;;;0.63;0.10;;;22.70;39.10;;;;;;5020358;28;20021;-77
2021/04/12 13:57:41;;;;;;;0.30;0.03;;;22.70;39.00;;;;;;5033698;28;20028;-79
2021/04/12 14:00:26;;;;;;;0.50;0.10;;;22.70;39.00;;;;;;5023685;28;20032;-76
2021/04/12 14:02:57;;;;;;;0.40;0.10;;;22.60;38.80;;;;;;5028487;28;20025;-79
2021/04/12 14:05:30;;;;;;;2.00;0.10;;;22.70;38.70;;;;;;5024361;28;20047;-79
2021/04/12 14:08:05;;;;;;;0.30;0.10;;;22.70;39.00;;;;;;5028994;28;20028;-78
2021/04/12 14:10:40;;;;;;;0.20;0.00;;;22.80;38.50;;;;;;5030738;28;20052;-79
2021/04/12 14:13:18;;;;;;;0.50;0.10;;;22.80;39.00;;;;;;5028497;28;20025;-78
2021/04/12 14:15:49;;;;;;;1.65;0.10;;;22.80;38.70;;;;;;5019900;28;20013;-78
2021/04/12 14:18:34;;;;;;;1.08;0.00;;;22.70;38.70;;;;;;5012425;28;20551;-78
2021/04/12 14:21:07;;;;;;;0.60;0.10;;;22.70;38.40;;;;;;5051253;28;20043;-79
2021/04/12 14:23:56;;;;;;;0.50;0.10;;;22.70;38.40;;;;;;5047923;28;20040;-77
2021/04/12 14:26:28;;;;;;;0.30;0.10;;;22.60;38.10;;;;;;5025631;28;20032;-77
2021/04/12 14:29:05;;;;;;;0.40;0.10;;;22.60;38.30;;;;;;5016635;28;20044;-79
2021/04/12 14:31:36;;;;;;;0.43;0.08;;;22.60;38.40;;;;;;5046929;28;20087;-79
2021/04/12 14:34:10;;;;;;;0.90;0.10;;;22.60;38.30;;;;;;5025011;28;20025;-78